createdAt,value
2023-06-17T00:01:00.909Z,5.82
2023-06-17T00:03:28.725Z,5.35
2023-06-17T00:05:55.837Z,5.80
2023-06-17T00:08:23.006Z,4.95
2023-06-17T00:10:50.494Z,7.00
2023-06-17T00:13:20.770Z,5.82
2023-06-17T00:15:52.166Z,5.90
2023-06-17T00:18:21.024Z,13.77
2023-06-17T00:20:49.361Z,6.72
2023-06-17T00:23:16.824Z,6.00
2023-06-17T00:25:44.308Z,6.40
2023-06-17T00:28:11.504Z,6.28
2023-06-17T00:30:38.780Z,5.95
2023-06-17T00:33:06.630Z,5.80
2023-06-17T00:35:35.166Z,5.65
2023-06-17T00:38:02.560Z,6.18
2023-06-17T00:40:30.028Z,6.18
2023-06-17T00:42:57.183Z,6.28
2023-06-17T00:45:24.416Z,5.70
2023-06-17T00:47:52.005Z,6.60
2023-06-17T00:50:20.722Z,6.28
2023-06-17T00:52:52.224Z,6.12
2023-06-17T00:55:19.770Z,5.68
2023-06-17T00:57:48.657Z,5.93
2023-06-17T01:00:16.418Z,5.62
2023-06-17T01:02:46.371Z,5.62
2023-06-17T01:05:17.892Z,5.32
2023-06-17T01:08:13.984Z,5.20
2023-06-17T01:10:52.019Z,5.50
2023-06-17T01:13:20.212Z,4.87
2023-06-17T01:15:47.796Z,4.47
2023-06-17T01:18:19.120Z,5.10
2023-06-17T01:20:50.053Z,4.72
2023-06-17T01:23:18.088Z,4.45
2023-06-17T01:25:47.130Z,4.40
2023-06-17T01:28:21.285Z,4.68
2023-06-17T01:30:49.197Z,4.87
2023-06-17T01:33:17.129Z,5.20
2023-06-17T01:35:53.857Z,4.62
2023-06-17T01:38:30.644Z,4.60
2023-06-17T01:41:09.365Z,5.05
2023-06-17T01:43:37.674Z,4.35
2023-06-17T01:46:05.552Z,4.32
2023-06-17T01:48:32.947Z,4.30
2023-06-17T01:51:00.589Z,4.30
2023-06-17T01:53:28.282Z,4.60
2023-06-17T01:55:55.817Z,4.68
2023-06-17T01:58:23.552Z,4.35
2023-06-17T02:00:50.932Z,4.35
2023-06-17T02:03:18.731Z,4.50
2023-06-17T02:05:46.017Z,4.50
2023-06-17T02:08:15.291Z,4.95
2023-06-17T02:10:42.918Z,4.97
2023-06-17T02:13:10.080Z,4.07
2023-06-17T02:15:37.374Z,4.25
2023-06-17T02:18:05.559Z,4.28
2023-06-17T02:20:33.119Z,4.30
2023-06-17T02:23:00.398Z,4.28
2023-06-17T02:25:27.704Z,4.62
2023-06-17T02:27:55.635Z,4.43
2023-06-17T02:30:23.333Z,4.55
2023-06-17T02:32:50.748Z,4.57
2023-06-17T02:35:20.851Z,4.93
2023-06-17T02:37:48.211Z,4.37
2023-06-17T02:40:15.430Z,5.00
2023-06-17T02:42:42.937Z,4.45
2023-06-17T02:45:12.841Z,4.50
2023-06-17T02:47:42.090Z,4.55
2023-06-17T02:50:10.388Z,4.68
2023-06-17T02:52:38.918Z,5.05
2023-06-17T02:55:07.116Z,4.60
2023-06-17T02:57:34.638Z,4.60
2023-06-17T03:00:02.060Z,4.43
2023-06-17T03:02:29.646Z,4.72
2023-06-17T03:04:57.974Z,3.87
2023-06-17T03:07:25.787Z,4.75
2023-06-17T03:09:53.098Z,5.20
2023-06-17T03:12:20.715Z,4.65
2023-06-17T03:14:48.713Z,5.15
2023-06-17T03:17:16.169Z,4.45
2023-06-17T03:19:44.945Z,4.47
2023-06-17T03:22:12.553Z,6.43
2023-06-17T03:24:39.967Z,4.68
2023-06-17T03:27:07.609Z,3.95
2023-06-17T03:29:37.735Z,4.47
2023-06-17T03:32:05.962Z,3.87
2023-06-17T03:34:34.313Z,4.05
2023-06-17T03:37:06.309Z,4.22
2023-06-17T03:39:33.828Z,4.68
2023-06-17T03:42:01.616Z,4.28
2023-06-17T03:44:28.843Z,3.90
2023-06-17T03:46:58.269Z,4.05
2023-06-17T03:49:25.828Z,4.70
2023-06-17T03:51:53.220Z,4.18
2023-06-17T03:54:20.755Z,4.00
2023-06-17T03:56:48.074Z,4.53
2023-06-17T03:59:16.316Z,5.72
2023-06-17T04:01:45.356Z,4.00
2023-06-17T04:04:12.906Z,3.87
2023-06-17T04:06:40.045Z,4.60
2023-06-17T04:09:07.264Z,3.83
2023-06-17T04:11:34.836Z,4.07
2023-06-17T04:14:02.087Z,4.22
2023-06-17T04:16:31.892Z,3.95
2023-06-17T04:18:59.633Z,3.65
2023-06-17T04:21:26.932Z,3.83
2023-06-17T04:23:54.259Z,4.35
2023-06-17T04:26:21.745Z,4.37
2023-06-17T04:28:49.252Z,4.20
2023-06-17T04:31:16.692Z,3.80
2023-06-17T04:33:44.430Z,4.50
2023-06-17T04:36:12.275Z,3.85
2023-06-17T04:38:40.774Z,3.83
2023-06-17T04:41:09.667Z,4.57
2023-06-17T04:43:39.897Z,3.78
2023-06-17T04:46:09.304Z,3.95
2023-06-17T04:48:38.441Z,4.47
2023-06-17T04:51:07.029Z,4.40
2023-06-17T04:53:34.735Z,4.65
2023-06-17T04:56:05.606Z,3.85
2023-06-17T04:58:32.899Z,4.20
2023-06-17T05:01:00.775Z,5.45
2023-06-17T05:03:28.384Z,4.30
2023-06-17T05:05:56.160Z,3.40
2023-06-17T05:08:23.960Z,3.80
2023-06-17T05:10:51.325Z,4.12
2023-06-17T05:13:18.601Z,3.70
2023-06-17T05:15:46.447Z,5.07
2023-06-17T05:18:13.728Z,3.92
2023-06-17T05:20:41.143Z,4.80
2023-06-17T05:23:09.155Z,4.10
2023-06-17T05:25:36.309Z,4.53
2023-06-17T05:28:06.481Z,4.50
2023-06-17T05:30:34.145Z,4.03
2023-06-17T05:33:01.923Z,4.53
2023-06-17T05:35:29.795Z,4.40
2023-06-17T05:37:58.132Z,3.78
2023-06-17T05:40:25.448Z,4.68
2023-06-17T05:42:52.932Z,5.70
2023-06-17T05:45:20.752Z,3.97
2023-06-17T05:47:48.958Z,4.15
2023-06-17T05:50:16.950Z,4.37
2023-06-17T05:52:46.768Z,4.95
2023-06-17T05:55:14.149Z,3.83
2023-06-17T05:57:41.718Z,3.95
2023-06-17T06:00:10.375Z,4.10
2023-06-17T06:02:40.708Z,4.68
2023-06-17T06:05:08.686Z,4.35
2023-06-17T06:07:36.012Z,4.55
2023-06-17T06:10:04.563Z,4.87
2023-06-17T06:12:32.369Z,4.47
2023-06-17T06:14:59.711Z,4.28
2023-06-17T06:17:27.240Z,3.80
2023-06-17T06:19:54.821Z,4.28
2023-06-17T06:22:22.122Z,8.68
2023-06-17T06:24:49.497Z,3.78
2023-06-17T06:27:17.056Z,4.40
2023-06-17T06:29:44.533Z,4.35
2023-06-17T06:32:11.891Z,4.60
2023-06-17T06:34:39.470Z,4.57
2023-06-17T06:37:06.917Z,4.32
2023-06-17T06:39:35.673Z,4.35
2023-06-17T06:42:03.287Z,4.30
2023-06-17T06:44:34.715Z,3.65
2023-06-17T06:47:01.946Z,3.90
2023-06-17T06:49:30.837Z,4.30
2023-06-17T06:51:58.073Z,4.15
2023-06-17T06:54:25.493Z,4.68
2023-06-17T06:56:52.998Z,4.18
2023-06-17T06:59:20.251Z,4.05
2023-06-17T07:01:47.489Z,4.18
2023-06-17T07:04:15.864Z,4.10
2023-06-17T07:06:44.238Z,4.00
2023-06-17T07:09:12.521Z,4.10
2023-06-17T07:11:40.599Z,3.95
2023-06-17T07:14:08.573Z,3.53
2023-06-17T07:16:36.295Z,4.20
2023-06-17T07:19:04.194Z,3.95
2023-06-17T07:21:32.239Z,3.33
2023-06-17T07:24:00.196Z,4.62
2023-06-17T07:26:27.953Z,4.68
2023-06-17T07:28:55.400Z,4.10
2023-06-17T07:31:24.222Z,5.45
2023-06-17T07:33:57.879Z,4.05
2023-06-17T07:36:27.008Z,4.05
2023-06-17T07:38:54.810Z,4.15
2023-06-17T07:41:22.119Z,4.03
2023-06-17T07:43:49.303Z,4.47
2023-06-17T07:46:17.034Z,3.72
2023-06-17T07:48:44.277Z,4.03
2023-06-17T07:51:11.672Z,4.00
2023-06-17T07:53:39.191Z,3.78
2023-06-17T07:56:06.943Z,3.53
2023-06-17T07:58:34.232Z,3.67
2023-06-17T08:01:02.728Z,3.95
2023-06-17T08:03:30.426Z,3.67
2023-06-17T08:05:58.280Z,3.78
2023-06-17T08:08:25.541Z,3.65
2023-06-17T08:10:53.029Z,3.53
2023-06-17T08:13:20.260Z,4.35
2023-06-17T08:15:47.453Z,3.53
2023-06-17T08:18:15.087Z,3.72
2023-06-17T08:20:42.485Z,3.15
2023-06-17T08:23:09.707Z,3.67
2023-06-17T08:25:37.254Z,3.80
2023-06-17T08:28:04.629Z,3.28
2023-06-17T08:30:31.866Z,3.92
2023-06-17T08:32:59.460Z,4.68
2023-06-17T08:35:26.668Z,3.60
2023-06-17T08:37:54.373Z,3.30
2023-06-17T08:40:23.683Z,3.72
2023-06-17T08:43:03.841Z,3.75
2023-06-17T08:45:31.764Z,3.40
2023-06-17T08:47:59.457Z,3.40
2023-06-17T08:50:28.061Z,4.15
2023-06-17T08:52:56.066Z,4.35
2023-06-17T08:55:23.333Z,3.85
2023-06-17T08:57:54.098Z,3.78
2023-06-17T09:00:21.962Z,3.83
2023-06-17T09:02:49.786Z,3.90
2023-06-17T09:05:17.586Z,4.72
2023-06-17T09:07:45.582Z,3.78
2023-06-17T09:10:15.914Z,3.50
2023-06-17T09:12:43.145Z,3.83
2023-06-17T09:15:18.149Z,3.55
2023-06-17T09:17:46.842Z,4.07
2023-06-17T09:20:16.459Z,3.87
2023-06-17T09:22:45.956Z,3.40
2023-06-17T09:25:15.502Z,3.53
2023-06-17T09:28:11.150Z,3.35
2023-06-17T09:30:38.476Z,3.60
2023-06-17T09:33:18.052Z,3.40
2023-06-17T09:35:46.039Z,3.08
2023-06-17T09:38:16.718Z,3.25
2023-06-17T09:40:43.981Z,3.62
2023-06-17T09:43:26.614Z,3.42
2023-06-17T09:46:00.862Z,4.78
2023-06-17T09:48:36.584Z,3.60
2023-06-17T09:51:10.370Z,3.70
2023-06-17T09:53:39.073Z,2.97
2023-06-17T09:56:12.020Z,5.45
2023-06-17T09:58:44.402Z,3.08
2023-06-17T10:01:13.003Z,3.87
2023-06-17T10:03:43.630Z,3.30
2023-06-17T10:06:13.094Z,3.00
2023-06-17T10:08:42.867Z,3.60
2023-06-17T10:11:12.863Z,3.37
2023-06-17T10:13:40.975Z,3.15
2023-06-17T10:16:13.974Z,3.65
2023-06-17T10:18:42.577Z,3.22
2023-06-17T10:21:12.931Z,3.33
2023-06-17T10:23:41.856Z,3.50
2023-06-17T10:26:09.611Z,2.80
2023-06-17T10:29:01.766Z,3.00
2023-06-17T10:31:33.907Z,3.50
2023-06-17T10:34:02.905Z,3.75
2023-06-17T10:36:30.828Z,2.97
2023-06-17T10:39:08.138Z,9.68
2023-06-17T10:41:41.804Z,6.45
2023-06-17T10:44:28.473Z,3.17
2023-06-17T10:46:56.868Z,3.60
2023-06-17T10:49:24.137Z,3.05
2023-06-17T10:51:58.492Z,3.17
2023-06-17T10:54:29.226Z,3.40
2023-06-17T10:56:56.450Z,3.40
2023-06-17T10:59:31.652Z,3.35
2023-06-17T11:02:04.896Z,2.90
2023-06-17T11:04:33.326Z,3.20
2023-06-17T11:07:01.967Z,3.28
2023-06-17T11:09:30.552Z,3.78
2023-06-17T11:11:58.491Z,3.17
2023-06-17T11:14:28.147Z,2.80
2023-06-17T11:16:55.415Z,3.80
2023-06-17T11:19:23.301Z,3.45
2023-06-17T11:22:04.631Z,2.97
2023-06-17T11:24:32.643Z,2.85
2023-06-17T11:27:01.558Z,2.67
2023-06-17T11:29:30.236Z,2.62
2023-06-17T11:32:01.417Z,2.70
2023-06-17T11:34:32.905Z,2.70
2023-06-17T11:37:02.075Z,3.05
2023-06-17T11:39:32.809Z,2.90
2023-06-17T11:42:03.102Z,8.70
2023-06-17T11:44:34.429Z,2.47
2023-06-17T11:47:09.881Z,2.75
2023-06-17T11:49:41.924Z,2.70
2023-06-17T11:52:11.040Z,2.75
2023-06-17T11:54:51.357Z,2.55
2023-06-17T11:57:22.956Z,3.17
2023-06-17T11:59:59.427Z,11.40
2023-06-17T12:02:29.639Z,4.35
2023-06-17T12:05:02.251Z,2.90
2023-06-17T12:07:30.112Z,2.70
2023-06-17T12:09:57.970Z,4.65
2023-06-17T12:12:26.400Z,2.55
2023-06-17T12:15:14.852Z,2.40
2023-06-17T12:17:45.486Z,2.33
2023-06-17T12:20:16.940Z,2.40
2023-06-17T12:22:45.420Z,2.50
2023-06-17T12:25:13.091Z,2.12
2023-06-17T12:27:41.309Z,2.17
2023-06-17T12:30:10.298Z,2.10
2023-06-17T12:32:38.318Z,1.62
2023-06-17T12:35:08.087Z,1.80
2023-06-17T12:37:37.144Z,3.30
2023-06-17T12:40:04.653Z,1.80
2023-06-17T12:42:32.393Z,2.15
2023-06-17T12:45:00.042Z,2.50
2023-06-17T12:47:27.780Z,2.37
2023-06-17T12:49:55.112Z,2.40
2023-06-17T12:52:22.676Z,1.90
2023-06-17T12:55:00.517Z,1.90
2023-06-17T12:57:28.628Z,2.20
2023-06-17T12:59:56.021Z,2.53
2023-06-17T13:02:23.380Z,2.35
2023-06-17T13:04:50.957Z,2.28
2023-06-17T13:07:18.677Z,3.78
2023-06-17T13:09:45.925Z,2.42
2023-06-17T13:12:14.869Z,1.98
2023-06-17T13:14:42.464Z,2.03
2023-06-17T13:17:10.999Z,2.10
2023-06-17T13:19:38.798Z,2.65
2023-06-17T13:22:06.309Z,3.25
2023-06-17T13:24:33.576Z,1.92
2023-06-17T13:27:01.135Z,2.40
2023-06-17T13:29:28.484Z,2.17
2023-06-17T13:31:56.425Z,2.67
2023-06-17T13:34:24.415Z,2.12
2023-06-17T13:36:51.612Z,1.85
2023-06-17T13:39:18.843Z,1.77
2023-06-17T13:41:46.210Z,2.20
2023-06-17T13:44:14.514Z,2.10
2023-06-17T13:46:41.969Z,2.28
2023-06-17T13:49:09.410Z,3.00
2023-06-17T13:51:36.531Z,1.80
2023-06-17T13:54:04.162Z,2.03
2023-06-17T13:56:31.697Z,2.33
2023-06-17T13:58:58.879Z,1.80
2023-06-17T14:01:26.094Z,2.00
2023-06-17T14:03:53.911Z,2.28
2023-06-17T14:06:21.759Z,2.60
2023-06-17T14:08:48.967Z,2.08
2023-06-17T14:11:16.366Z,2.05
2023-06-17T14:13:44.562Z,1.92
2023-06-17T14:16:12.850Z,2.10
2023-06-17T14:18:40.432Z,2.05
2023-06-17T14:21:08.017Z,1.90
2023-06-17T14:23:53.769Z,1.83
2023-06-17T14:26:21.267Z,2.37
2023-06-17T14:28:48.801Z,1.87
2023-06-17T14:31:15.959Z,1.83
2023-06-17T14:33:43.673Z,2.17
2023-06-17T14:36:11.161Z,1.98
2023-06-17T14:38:38.320Z,2.10
2023-06-17T14:41:05.805Z,1.80
2023-06-17T14:43:33.257Z,2.00
2023-06-17T14:46:00.683Z,2.17
2023-06-17T14:48:28.067Z,2.53
2023-06-17T14:50:55.595Z,1.85
2023-06-17T14:53:32.468Z,1.87
2023-06-17T14:56:30.214Z,1.92
2023-06-17T14:58:57.797Z,2.65
2023-06-17T15:01:29.163Z,1.85
2023-06-17T15:03:56.503Z,2.30
2023-06-17T15:06:23.709Z,1.98
2023-06-17T15:09:15.867Z,1.77
2023-06-17T15:11:48.908Z,2.20
2023-06-17T15:14:16.409Z,2.00
2023-06-17T15:16:43.546Z,5.78
2023-06-17T15:19:10.973Z,2.00
2023-06-17T15:21:38.846Z,2.00
2023-06-17T15:24:07.077Z,2.08
2023-06-17T15:26:34.940Z,2.10
2023-06-17T15:29:02.840Z,1.90
2023-06-17T15:31:30.070Z,1.90
2023-06-17T15:33:57.316Z,1.83
2023-06-17T15:36:24.838Z,2.70
2023-06-17T15:38:52.020Z,2.42
2023-06-17T15:41:19.387Z,1.95
2023-06-17T15:43:46.891Z,2.28
2023-06-17T15:46:14.180Z,1.87
2023-06-17T15:48:41.727Z,1.85
2023-06-17T15:51:09.245Z,1.70
2023-06-17T15:53:36.566Z,2.25
2023-06-17T15:56:03.914Z,1.85
2023-06-17T15:58:32.326Z,1.67
2023-06-17T16:00:59.956Z,3.10
2023-06-17T16:03:31.562Z,2.12
2023-06-17T16:05:59.848Z,2.30
2023-06-17T16:08:27.298Z,2.33
2023-06-17T16:10:54.917Z,2.40
2023-06-17T16:13:23.261Z,2.17
2023-06-17T16:15:50.872Z,1.87
2023-06-17T16:18:18.450Z,1.85
2023-06-17T16:20:46.369Z,2.35
2023-06-17T16:23:14.506Z,2.30
2023-06-17T16:25:54.931Z,1.73
2023-06-17T16:28:22.977Z,1.95
2023-06-17T16:30:50.599Z,1.73
2023-06-17T16:33:17.831Z,2.25
2023-06-17T16:35:45.105Z,1.83
2023-06-17T16:38:12.592Z,1.80
2023-06-17T16:40:39.818Z,2.10
2023-06-17T16:43:07.032Z,1.92
2023-06-17T16:45:35.367Z,1.87
2023-06-17T16:48:02.668Z,2.03
2023-06-17T16:50:29.830Z,1.87
2023-06-17T16:52:57.354Z,2.80
2023-06-17T16:55:24.567Z,2.08
2023-06-17T16:57:51.726Z,2.15
2023-06-17T17:00:19.870Z,2.37
2023-06-17T17:02:47.437Z,2.50
2023-06-17T17:05:14.710Z,2.40
2023-06-17T17:07:42.239Z,3.33
2023-06-17T17:10:09.646Z,2.30
2023-06-17T17:12:36.826Z,2.45
2023-06-17T17:15:04.495Z,3.12
2023-06-17T17:17:32.338Z,3.45
2023-06-17T17:19:59.515Z,2.80
2023-06-17T17:22:27.296Z,3.05
2023-06-17T17:24:54.572Z,3.00
2023-06-17T17:27:21.827Z,3.00
2023-06-17T17:29:49.304Z,3.53
2023-06-17T17:32:16.498Z,2.70
2023-06-17T17:34:43.621Z,3.28
2023-06-17T17:37:11.016Z,3.10
2023-06-17T17:39:38.335Z,3.35
2023-06-17T17:42:06.055Z,5.97
2023-06-17T17:44:33.544Z,5.43
2023-06-17T17:47:00.829Z,4.18
2023-06-17T17:49:28.033Z,4.00
2023-06-17T17:51:55.601Z,3.40
2023-06-17T17:54:25.035Z,2.60
2023-06-17T17:56:52.339Z,3.00
2023-06-17T17:59:19.830Z,2.87
2023-06-17T18:01:47.065Z,3.10
2023-06-17T18:04:14.664Z,3.97
2023-06-17T18:06:41.921Z,3.62
2023-06-17T18:09:09.191Z,2.58
2023-06-17T18:11:37.248Z,2.42
2023-06-17T18:14:04.524Z,2.87
2023-06-17T18:16:33.198Z,4.35
2023-06-17T18:19:00.779Z,3.85
2023-06-17T18:21:29.818Z,3.10
2023-06-17T18:23:57.138Z,3.33
2023-06-17T18:26:25.400Z,3.10
2023-06-17T18:28:52.580Z,3.12
2023-06-17T18:31:22.635Z,3.55
2023-06-17T18:33:50.109Z,3.20
2023-06-17T18:36:17.433Z,3.33
2023-06-17T18:38:44.643Z,3.40
2023-06-17T18:41:12.185Z,3.80
2023-06-17T18:43:39.372Z,8.13
2023-06-17T18:46:06.700Z,6.18
2023-06-17T18:48:34.265Z,7.22
2023-06-17T18:51:01.584Z,4.72
2023-06-17T18:53:28.771Z,4.62
2023-06-17T18:55:56.644Z,7.30
2023-06-17T18:58:23.991Z,6.50
2023-06-17T19:00:51.251Z,5.85
2023-06-17T19:03:19.093Z,6.82
2023-06-17T19:05:46.311Z,8.65
2023-06-17T19:08:13.508Z,11.02
2023-06-17T19:10:41.084Z,8.00
2023-06-17T19:13:08.324Z,7.62
2023-06-17T19:15:36.395Z,6.07
2023-06-17T19:18:04.048Z,10.32
2023-06-17T19:20:31.375Z,6.75
2023-06-17T19:22:58.636Z,6.15
2023-06-17T19:25:26.957Z,6.50
2023-06-17T19:27:54.181Z,7.90
2023-06-17T19:30:21.696Z,8.30
2023-06-17T19:32:49.381Z,9.07
2023-06-17T19:35:16.649Z,6.55
2023-06-17T19:37:44.023Z,5.55
2023-06-17T19:40:12.283Z,5.15
2023-06-17T19:42:39.477Z,4.85
2023-06-17T19:45:07.297Z,4.40
2023-06-17T19:47:34.859Z,4.62
2023-06-17T19:50:02.092Z,5.18
2023-06-17T19:52:29.664Z,5.00
2023-06-17T19:54:57.721Z,3.90
2023-06-17T19:57:24.935Z,4.78
2023-06-17T19:59:52.252Z,3.87
2023-06-17T20:02:20.676Z,5.12
2023-06-17T20:04:48.347Z,4.35
2023-06-17T20:07:15.661Z,4.35
2023-06-17T20:09:42.858Z,5.12
2023-06-17T20:12:12.421Z,4.22
2023-06-17T20:14:39.788Z,3.92
2023-06-17T20:17:08.631Z,4.25
2023-06-17T20:19:36.103Z,3.70
2023-06-17T20:22:03.587Z,3.65
2023-06-17T20:24:30.876Z,3.90
2023-06-17T20:26:59.482Z,3.53
2023-06-17T20:29:26.863Z,4.00
2023-06-17T20:31:54.377Z,4.45
2023-06-17T20:34:23.433Z,3.55
2023-06-17T20:36:51.734Z,3.72
2023-06-17T20:39:18.988Z,3.50
2023-06-17T20:41:46.446Z,4.10
2023-06-17T20:44:13.624Z,3.83
2023-06-17T20:46:40.891Z,3.75
2023-06-17T20:49:08.472Z,3.60
2023-06-17T20:51:36.154Z,4.65
2023-06-17T20:54:03.584Z,3.90
2023-06-17T20:56:37.059Z,4.18
2023-06-17T20:59:04.384Z,4.62
2023-06-17T21:01:31.920Z,4.15
2023-06-17T21:03:59.149Z,4.28
2023-06-17T21:06:26.350Z,4.65
2023-06-17T21:08:53.887Z,5.32
2023-06-17T21:11:21.291Z,4.90
2023-06-17T21:13:48.474Z,4.40
2023-06-17T21:16:16.277Z,4.62
2023-06-17T21:18:43.574Z,4.35
2023-06-17T21:21:11.043Z,4.43
2023-06-17T21:23:38.608Z,4.90
2023-06-17T21:26:05.856Z,4.18
2023-06-17T21:28:33.050Z,5.07
2023-06-17T21:31:00.535Z,4.80
2023-06-17T21:33:27.827Z,4.12
2023-06-17T21:35:55.244Z,4.22
2023-06-17T21:38:22.812Z,4.80
2023-06-17T21:40:50.048Z,4.03
2023-06-17T21:43:17.223Z,4.60
2023-06-17T21:45:44.718Z,4.30
2023-06-17T21:48:12.113Z,4.20
2023-06-17T21:50:42.250Z,3.70
2023-06-17T21:53:09.900Z,3.95
2023-06-17T21:55:37.065Z,4.03
2023-06-17T21:58:04.349Z,3.85
2023-06-17T22:00:31.821Z,5.53
2023-06-17T22:02:59.364Z,4.90
2023-06-17T22:05:27.852Z,4.00
2023-06-17T22:07:55.152Z,4.10
2023-06-17T22:10:22.935Z,4.10
2023-06-17T22:12:51.600Z,4.53
2023-06-17T22:15:18.815Z,4.07
2023-06-17T22:17:46.652Z,5.37
2023-06-17T22:20:14.808Z,4.32
2023-06-17T22:22:42.981Z,4.20
2023-06-17T22:25:10.450Z,3.83
2023-06-17T22:27:37.675Z,4.12
2023-06-17T22:30:05.420Z,4.12
2023-06-17T22:32:33.240Z,4.97
2023-06-17T22:35:00.821Z,4.80
2023-06-17T22:37:28.071Z,3.92
2023-06-17T22:39:55.602Z,5.70
2023-06-17T22:42:22.888Z,5.65
2023-06-17T22:44:50.148Z,4.62
2023-06-17T22:47:17.642Z,4.65
2023-06-17T22:49:44.896Z,4.78
2023-06-17T22:52:12.062Z,4.30
2023-06-17T22:54:39.629Z,5.75
2023-06-17T22:57:07.610Z,6.53
2023-06-17T22:59:34.870Z,4.30
2023-06-17T23:02:02.626Z,10.15
2023-06-17T23:04:31.845Z,3.80
2023-06-17T23:06:59.993Z,5.80
2023-06-17T23:09:27.534Z,5.87
2023-06-17T23:11:54.742Z,6.37
2023-06-17T23:14:24.800Z,5.57
2023-06-17T23:16:52.573Z,4.10
2023-06-17T23:19:19.907Z,4.15
2023-06-17T23:21:47.108Z,3.65
2023-06-17T23:24:15.214Z,4.18
2023-06-17T23:26:42.462Z,4.62
2023-06-17T23:29:12.748Z,4.93
2023-06-17T23:31:40.561Z,4.30
2023-06-17T23:34:07.804Z,3.95
2023-06-17T23:36:35.020Z,3.97
2023-06-17T23:39:02.658Z,3.87
2023-06-17T23:41:29.907Z,4.40
2023-06-17T23:43:57.173Z,4.25
2023-06-17T23:46:25.172Z,3.65
2023-06-17T23:48:52.377Z,3.80
2023-06-17T23:51:19.922Z,3.97
2023-06-17T23:53:47.405Z,4.00
2023-06-17T23:56:14.868Z,3.92
2023-06-17T23:58:42.156Z,3.67
